Aviation Digital Data Service (ADDS)

Output produced by METARs form (0122 UTC 17 July 2019)
found at http://www.aviationweather.gov/metar/data/
 
TAF FBFT 170000Z 1703/1712 08006KT CAVOK
       
TAF FBFT 170000Z 1703/1712 08006KT CAVOK
       
FBMN 170100Z 12004KT CAVOK 11/M00 Q1025
TAF FBMN 170000Z 1703/1712 09005KT CAVOK
       
FBSK 170100Z VRB02KT CAVOK 06/M02 Q1028 NOSIG
TAF FBSK 162100Z 1700/1806 02009KT CAVOK
       
TAF FBFT 170000Z 1703/1712 08006KT CAVOK
       
TAF FBFT 170000Z 1703/1712 08006KT CAVOK